createdAt,value
2018-06-15T00:00:56.725Z,22.53
2018-06-15T00:03:38.868Z,21.73
2018-06-15T00:06:20.455Z,21.23
2018-06-15T00:08:50.958Z,22.27
2018-06-15T00:11:26.137Z,21.00
2018-06-15T00:13:54.821Z,22.30
2018-06-15T00:16:23.486Z,22.30
2018-06-15T00:19:02.029Z,21.93
2018-06-15T00:21:54.709Z,21.80
2018-06-15T00:27:15.989Z,21.87
2018-06-15T00:30:00.667Z,21.53
2018-06-15T00:32:42.239Z,21.07
2018-06-15T00:38:07.241Z,21.50
2018-06-15T00:40:39.327Z,21.40
2018-06-15T00:46:01.920Z,20.70
2018-06-15T00:51:23.303Z,20.83
2018-06-15T00:56:59.942Z,21.77
2018-06-15T00:59:29.581Z,20.50
2018-06-15T01:02:09.944Z,20.77
2018-06-15T01:04:39.608Z,20.90
2018-06-15T01:07:11.279Z,20.40
2018-06-15T01:09:40.941Z,19.87
2018-06-15T01:12:29.869Z,19.63
2018-06-15T01:18:09.019Z,19.10
2018-06-15T01:20:47.236Z,19.00
2018-06-15T01:23:23.004Z,18.87
2018-06-15T01:26:06.320Z,18.20
2018-06-15T01:28:36.927Z,18.73
2018-06-15T01:31:21.897Z,18.87
2018-06-15T01:36:45.104Z,19.10
2018-06-15T01:39:15.627Z,18.73
2018-06-15T01:41:51.073Z,19.70
2018-06-15T01:44:37.228Z,19.23
2018-06-15T01:47:06.950Z,19.20
2018-06-15T01:49:40.159Z,18.87
2018-06-15T01:52:16.244Z,18.70
2018-06-15T01:54:52.312Z,19.03
2018-06-15T01:57:44.348Z,18.40
2018-06-15T02:00:13.069Z,17.97
2018-06-15T02:03:06.267Z,18.43
2018-06-15T02:05:42.964Z,18.77
2018-06-15T02:11:16.883Z,17.90
2018-06-15T02:13:52.023Z,18.33
2018-06-15T02:16:22.552Z,17.73
2018-06-15T02:18:51.204Z,18.00
2018-06-15T02:21:31.649Z,17.23
2018-06-15T02:24:13.162Z,17.93
2018-06-15T02:26:41.645Z,17.77
2018-06-15T02:29:25.854Z,17.97
2018-06-15T02:32:01.180Z,18.80
2018-06-15T02:34:29.702Z,17.60
2018-06-15T02:37:01.264Z,17.53
2018-06-15T02:39:29.864Z,18.50
2018-06-15T02:41:58.243Z,17.40
2018-06-15T02:44:26.776Z,18.30
2018-06-15T02:49:48.037Z,16.70
2018-06-15T02:52:20.060Z,16.83
2018-06-15T02:55:02.335Z,16.20
2018-06-15T02:57:45.706Z,17.03
2018-06-15T03:00:14.408Z,17.17
2018-06-15T03:02:43.954Z,16.10
2018-06-15T03:05:12.340Z,16.50
2018-06-15T03:07:40.735Z,17.03
2018-06-15T03:10:13.134Z,16.43
2018-06-15T03:12:41.806Z,16.80
2018-06-15T03:15:10.487Z,16.10
2018-06-15T03:17:43.792Z,16.30
2018-06-15T03:20:30.881Z,16.33
2018-06-15T03:22:59.287Z,15.60
2018-06-15T03:25:29.856Z,16.37
2018-06-15T03:28:00.362Z,15.83
2018-06-15T03:33:26.289Z,17.07
2018-06-15T03:36:00.548Z,15.93
2018-06-15T03:38:33.501Z,16.27
2018-06-15T03:41:02.304Z,17.03
2018-06-15T03:43:30.873Z,17.10
2018-06-15T03:45:59.622Z,17.23
2018-06-15T03:48:28.998Z,18.03
2018-06-15T03:51:01.248Z,18.60
2018-06-15T03:53:34.817Z,18.37
2018-06-15T03:56:08.455Z,18.70
2018-06-15T03:58:38.090Z,18.50
2018-06-15T04:04:11.326Z,18.53
2018-06-15T04:06:41.896Z,18.13
2018-06-15T04:09:11.491Z,17.47
2018-06-15T04:11:41.089Z,19.07
2018-06-15T04:14:22.095Z,18.33
2018-06-15T04:17:03.397Z,17.73
2018-06-15T04:19:51.747Z,18.20
2018-06-15T04:22:29.655Z,18.37
2018-06-15T04:25:04.566Z,17.77
2018-06-15T04:27:33.086Z,17.97
2018-06-15T04:30:01.513Z,17.33
2018-06-15T04:32:29.982Z,17.77
2018-06-15T04:34:58.565Z,16.50
2018-06-15T04:37:26.993Z,16.57
2018-06-15T04:39:59.350Z,17.73
2018-06-15T04:42:35.092Z,16.17
2018-06-15T04:45:23.750Z,17.27
2018-06-15T04:48:06.203Z,17.10
2018-06-15T04:50:40.752Z,15.67
2018-06-15T04:53:28.209Z,16.43
2018-06-15T04:55:56.870Z,15.23
2018-06-15T04:58:39.674Z,15.17
2018-06-15T05:01:30.214Z,15.80
2018-06-15T05:06:53.409Z,14.33
2018-06-15T05:09:24.134Z,14.20
2018-06-15T05:11:54.714Z,14.10
2018-06-15T05:14:25.281Z,13.60
2018-06-15T05:16:54.878Z,13.57
2018-06-15T05:19:27.693Z,14.00
2018-06-15T05:21:58.068Z,13.03
2018-06-15T05:24:32.328Z,13.90
2018-06-15T05:27:02.907Z,14.13
2018-06-15T05:29:38.664Z,13.77
2018-06-15T05:32:09.137Z,13.07
2018-06-15T05:34:51.926Z,13.53
2018-06-15T05:37:26.576Z,13.63
2018-06-15T05:39:59.144Z,12.90
2018-06-15T05:42:40.757Z,13.03
2018-06-15T05:45:32.176Z,12.83
2018-06-15T05:48:04.268Z,12.53
2018-06-15T05:50:34.779Z,12.67
2018-06-15T05:53:05.618Z,11.30
2018-06-15T05:55:36.161Z,11.97
2018-06-15T05:58:23.572Z,11.20
2018-06-15T06:01:03.360Z,11.23
2018-06-15T06:03:44.879Z,11.87
2018-06-15T06:06:36.323Z,11.40
2018-06-15T06:09:18.816Z,11.03
2018-06-15T06:11:52.730Z,10.67
2018-06-15T06:14:26.648Z,9.60
2018-06-15T06:16:55.123Z,10.27
2018-06-15T06:19:37.217Z,11.07
2018-06-15T06:25:06.140Z,10.77
2018-06-15T06:27:39.589Z,11.30
2018-06-15T06:30:08.446Z,10.97
2018-06-15T06:32:37.560Z,11.03
2018-06-15T06:35:08.278Z,9.80
2018-06-15T06:37:42.687Z,9.67
2018-06-15T06:40:16.880Z,10.00
2018-06-15T06:42:53.561Z,9.03
2018-06-15T06:45:31.463Z,9.67
2018-06-15T06:48:13.006Z,9.40
2018-06-15T06:50:42.726Z,9.10
2018-06-15T06:53:15.272Z,9.40
2018-06-15T06:55:57.224Z,9.27
2018-06-15T06:58:45.519Z,8.97
2018-06-15T07:01:15.158Z,8.70
2018-06-15T07:03:57.594Z,8.07
2018-06-15T07:06:31.240Z,8.47
2018-06-15T07:09:07.930Z,8.30
2018-06-15T07:11:53.158Z,8.73
2018-06-15T07:17:25.430Z,8.13
2018-06-15T07:20:03.828Z,9.50
2018-06-15T07:22:35.564Z,9.40
2018-06-15T07:25:04.284Z,10.37
2018-06-15T07:27:32.952Z,10.37
2018-06-15T07:30:04.710Z,10.00
2018-06-15T07:32:39.519Z,10.07
2018-06-15T07:35:10.078Z,11.67
2018-06-15T07:37:51.970Z,10.20
2018-06-15T07:40:21.762Z,10.87
2018-06-15T07:42:54.236Z,10.17
2018-06-15T07:45:36.108Z,10.70
2018-06-15T07:48:08.223Z,9.93
2018-06-15T07:50:41.381Z,10.67
2018-06-15T07:53:32.612Z,9.77
2018-06-15T07:56:07.745Z,10.20
2018-06-15T07:58:38.283Z,10.30
2018-06-15T08:01:28.797Z,9.83
2018-06-15T08:04:03.959Z,9.73
2018-06-15T08:06:33.246Z,9.30
2018-06-15T08:09:03.212Z,9.90
2018-06-15T08:11:31.822Z,9.27
2018-06-15T08:14:01.426Z,9.73
2018-06-15T08:16:34.742Z,8.77
2018-06-15T08:19:03.857Z,8.40
2018-06-15T08:21:45.274Z,8.13
2018-06-15T08:24:14.933Z,7.67
2018-06-15T08:27:07.262Z,7.63
2018-06-15T08:29:45.756Z,8.20
2018-06-15T08:32:14.219Z,8.47
2018-06-15T08:34:42.832Z,8.30
2018-06-15T08:37:11.182Z,8.73
2018-06-15T08:39:40.797Z,8.10
2018-06-15T08:42:14.939Z,8.40
2018-06-15T08:47:59.715Z,8.63
2018-06-15T08:50:35.779Z,8.93
2018-06-15T08:56:02.981Z,9.00
2018-06-15T08:58:32.967Z,8.70
2018-06-15T09:03:55.871Z,8.30
2018-06-15T09:06:29.000Z,8.97
2018-06-15T09:08:59.579Z,10.07
2018-06-15T09:11:36.947Z,8.80
2018-06-15T09:14:05.135Z,8.73
2018-06-15T09:16:35.825Z,8.77
2018-06-15T09:19:18.889Z,8.57
2018-06-15T09:21:47.724Z,8.27
2018-06-15T09:24:28.837Z,8.30
2018-06-15T09:27:03.411Z,7.93
2018-06-15T09:29:38.227Z,9.13
2018-06-15T09:32:12.381Z,8.30
2018-06-15T09:34:42.972Z,7.90
2018-06-15T09:37:13.537Z,8.27
2018-06-15T09:39:47.707Z,7.90
2018-06-15T09:45:09.044Z,8.10
2018-06-15T09:47:37.405Z,7.83
2018-06-15T09:50:12.891Z,7.57
2018-06-15T09:52:41.583Z,7.90
2018-06-15T09:55:10.279Z,8.20
2018-06-15T09:57:39.924Z,7.30
2018-06-15T10:00:10.083Z,6.90
2018-06-15T10:02:42.255Z,7.20
2018-06-15T10:05:30.751Z,8.67
2018-06-15T10:08:18.561Z,7.57
2018-06-15T10:10:52.544Z,7.13
2018-06-15T10:13:25.461Z,7.23
2018-06-15T10:16:00.062Z,8.57
2018-06-15T10:18:28.860Z,6.80
2018-06-15T10:20:57.447Z,6.63
2018-06-15T10:23:27.064Z,7.37
2018-06-15T10:25:56.714Z,6.97
2018-06-15T10:28:31.182Z,6.80
2018-06-15T10:30:59.982Z,7.60
2018-06-15T10:33:29.604Z,6.90
2018-06-15T10:36:03.784Z,7.47
2018-06-15T10:38:36.467Z,6.97
2018-06-15T10:41:05.192Z,7.90
2018-06-15T10:43:35.050Z,8.47
2018-06-15T10:46:06.962Z,7.73
2018-06-15T10:48:36.719Z,6.50
2018-06-15T10:51:06.464Z,7.07
2018-06-15T10:53:35.074Z,7.30
2018-06-15T10:56:04.356Z,7.00
2018-06-15T10:58:36.042Z,7.70
2018-06-15T11:01:05.716Z,7.40
2018-06-15T11:03:46.841Z,8.40
2018-06-15T11:06:15.607Z,7.40
2018-06-15T11:08:44.338Z,8.30
2018-06-15T11:11:15.159Z,8.03
2018-06-15T11:13:43.798Z,7.77
2018-06-15T11:16:12.576Z,8.67
2018-06-15T11:18:41.286Z,7.50
2018-06-15T11:21:09.996Z,8.10
2018-06-15T11:23:39.569Z,8.17
2018-06-15T11:26:08.149Z,8.20
2018-06-15T11:28:42.362Z,8.07
2018-06-15T11:34:21.435Z,8.40
2018-06-15T11:36:54.618Z,8.60
2018-06-15T11:39:23.206Z,8.20
2018-06-15T11:41:51.946Z,7.67
2018-06-15T11:44:32.354Z,7.57
2018-06-15T11:47:01.033Z,7.80
2018-06-15T11:49:30.678Z,8.20
2018-06-15T11:52:03.259Z,7.90
2018-06-15T11:54:31.842Z,8.00
2018-06-15T11:57:00.535Z,8.07
2018-06-15T11:59:29.170Z,7.47
2018-06-15T12:02:02.777Z,8.07
2018-06-15T12:04:42.257Z,7.60
2018-06-15T12:07:11.039Z,8.27
2018-06-15T12:09:41.466Z,8.27
2018-06-15T12:12:26.100Z,8.30
2018-06-15T12:15:01.678Z,7.73
2018-06-15T12:17:46.519Z,7.33
2018-06-15T12:20:16.457Z,7.53
2018-06-15T12:22:46.992Z,7.67
2018-06-15T12:25:17.514Z,7.23
2018-06-15T12:27:47.110Z,7.13
2018-06-15T12:30:22.979Z,7.23
2018-06-15T12:33:10.305Z,7.23
2018-06-15T12:35:40.834Z,6.30
2018-06-15T12:38:23.508Z,6.47
2018-06-15T12:40:53.051Z,7.10
2018-06-15T12:43:23.500Z,6.70
2018-06-15T12:45:52.282Z,6.47
2018-06-15T12:48:21.869Z,6.93
2018-06-15T12:51:02.445Z,6.43
2018-06-15T12:53:43.075Z,6.00
2018-06-15T12:56:13.082Z,5.70
2018-06-15T12:58:53.739Z,6.50
2018-06-15T13:01:26.568Z,6.80
2018-06-15T13:04:08.259Z,6.13
2018-06-15T13:06:37.221Z,5.70
2018-06-15T13:09:07.456Z,6.30
2018-06-15T13:11:48.218Z,7.67
2018-06-15T13:14:16.878Z,6.50
2018-06-15T13:16:46.547Z,6.00
2018-06-15T13:19:17.045Z,5.50
2018-06-15T13:21:45.700Z,5.80
2018-06-15T13:24:16.472Z,5.70
2018-06-15T13:26:47.213Z,5.57
2018-06-15T13:29:16.834Z,5.10
2018-06-15T13:31:50.391Z,6.20
2018-06-15T13:34:31.980Z,6.23
2018-06-15T13:37:58.039Z,6.23
2018-06-15T13:40:50.022Z,6.60
2018-06-15T13:43:35.953Z,6.30
2018-06-15T13:46:04.971Z,7.27
2018-06-15T13:48:38.879Z,5.90
2018-06-15T13:51:13.033Z,5.73
2018-06-15T13:53:46.269Z,5.97
2018-06-15T13:56:20.201Z,5.67
2018-06-15T13:59:07.961Z,6.17
2018-06-15T14:01:37.975Z,5.87
2018-06-15T14:04:07.333Z,5.40
2018-06-15T14:06:46.913Z,5.53
2018-06-15T14:09:25.231Z,5.60
2018-06-15T14:11:55.733Z,5.70
2018-06-15T14:14:33.759Z,5.67
2018-06-15T14:17:14.759Z,5.73
2018-06-15T14:19:54.381Z,5.93
2018-06-15T14:22:33.776Z,6.03
2018-06-15T14:25:19.149Z,6.30
2018-06-15T14:27:48.879Z,5.87
2018-06-15T14:30:21.129Z,5.27
2018-06-15T14:33:06.929Z,6.10
2018-06-15T14:35:41.203Z,5.87
2018-06-15T14:38:18.656Z,5.27
2018-06-15T14:40:53.411Z,5.70
2018-06-15T14:43:24.311Z,5.40
2018-06-15T14:48:47.729Z,5.53
2018-06-15T14:51:23.959Z,6.00
2018-06-15T14:54:00.375Z,6.97
2018-06-15T14:56:33.786Z,7.83
2018-06-15T14:59:07.001Z,6.13
2018-06-15T15:01:42.638Z,5.57
2018-06-15T15:04:13.325Z,5.50
2018-06-15T15:06:45.623Z,5.53
2018-06-15T15:12:11.054Z,5.23
2018-06-15T15:14:43.517Z,5.20
2018-06-15T15:17:19.008Z,5.07
2018-06-15T15:19:53.569Z,4.63
2018-06-15T15:22:42.170Z,4.93
2018-06-15T15:25:12.783Z,4.77
2018-06-15T15:27:43.424Z,4.83
2018-06-15T15:33:07.677Z,5.10
2018-06-15T15:35:43.339Z,5.07
2018-06-15T15:38:13.111Z,5.70
2018-06-15T15:40:43.689Z,5.40
2018-06-15T15:43:30.985Z,5.03
2018-06-15T15:46:03.362Z,5.23
2018-06-15T15:48:33.943Z,5.77
2018-06-15T15:51:03.547Z,5.60
2018-06-15T15:53:37.902Z,5.23
2018-06-15T15:56:09.962Z,5.30
2018-06-15T15:58:41.864Z,6.07
2018-06-15T16:01:11.451Z,5.33
2018-06-15T16:03:43.878Z,6.17
2018-06-15T16:06:28.849Z,6.40
2018-06-15T16:08:58.708Z,5.97
2018-06-15T16:11:27.346Z,5.97
2018-06-15T16:13:56.985Z,5.60
2018-06-15T16:16:31.418Z,6.13
2018-06-15T16:19:04.578Z,5.67
2018-06-15T16:21:33.220Z,5.47
2018-06-15T16:24:03.806Z,5.90
2018-06-15T16:26:32.428Z,5.60
2018-06-15T16:29:07.092Z,5.43
2018-06-15T16:31:43.048Z,6.03
2018-06-15T16:34:12.034Z,5.20
2018-06-15T16:36:47.391Z,5.47
2018-06-15T16:39:26.985Z,6.27
2018-06-15T16:41:58.097Z,6.50
2018-06-15T16:44:37.855Z,6.00
2018-06-15T16:47:11.855Z,6.30
2018-06-15T16:49:42.887Z,5.80
2018-06-15T16:52:17.788Z,5.80
2018-06-15T16:54:47.407Z,5.50
2018-06-15T16:57:22.883Z,5.63
2018-06-15T16:59:52.819Z,6.23
2018-06-15T17:02:21.658Z,6.00
2018-06-15T17:04:52.055Z,5.97
2018-06-15T17:07:25.135Z,5.67
2018-06-15T17:09:53.883Z,5.33
2018-06-15T17:12:27.746Z,5.90
2018-06-15T17:15:06.321Z,5.63
2018-06-15T17:17:35.717Z,5.97
2018-06-15T17:20:04.261Z,5.40
2018-06-15T17:22:38.651Z,5.90
2018-06-15T17:25:13.025Z,6.43
2018-06-15T17:27:42.648Z,5.83
2018-06-15T17:30:12.527Z,6.20
2018-06-15T17:32:42.367Z,5.93
2018-06-15T17:35:14.385Z,5.63
2018-06-15T17:37:48.705Z,5.73
2018-06-15T17:40:20.843Z,5.87
2018-06-15T17:42:57.522Z,5.80
2018-06-15T17:45:26.933Z,6.03
2018-06-15T17:47:57.241Z,5.90
2018-06-15T17:50:27.702Z,5.53
2018-06-15T17:52:56.364Z,6.07
2018-06-15T17:55:28.112Z,5.90
2018-06-15T17:57:57.493Z,6.23
2018-06-15T18:00:42.511Z,6.10
2018-06-15T18:03:14.785Z,6.30
2018-06-15T18:05:47.421Z,6.00
2018-06-15T18:08:17.951Z,6.23
2018-06-15T18:10:50.048Z,6.23
2018-06-15T18:16:12.561Z,6.00
2018-06-15T18:18:43.384Z,6.20
2018-06-15T18:21:13.009Z,5.80
2018-06-15T18:23:51.428Z,6.00
2018-06-15T18:26:22.353Z,6.07
2018-06-15T18:29:06.909Z,6.37
2018-06-15T18:31:35.831Z,5.90
2018-06-15T18:34:04.524Z,7.80
2018-06-15T18:36:36.511Z,6.00
2018-06-15T18:39:19.539Z,6.20
2018-06-15T18:41:51.208Z,5.73
2018-06-15T18:44:27.249Z,5.73
2018-06-15T18:46:56.564Z,6.10
2018-06-15T18:49:26.434Z,6.17
2018-06-15T18:52:15.038Z,5.60
2018-06-15T19:04:00.981Z,6.20
2018-06-15T19:06:33.453Z,6.23
2018-06-15T19:15:10.848Z,6.37
2018-06-15T19:20:45.939Z,6.70
2018-06-15T19:26:13.383Z,7.50
2018-06-15T19:28:50.733Z,7.83
2018-06-15T19:54:11.022Z,8.53
2018-06-15T19:56:40.852Z,9.17
2018-06-15T20:25:27.875Z,10.40
2018-06-15T20:28:13.197Z,10.33
2018-06-15T20:30:49.175Z,10.40
2018-06-15T20:33:23.644Z,11.03
2018-06-15T20:35:54.331Z,11.23
2018-06-15T20:41:17.409Z,11.70
2018-06-15T20:43:50.803Z,11.83
2018-06-15T20:46:23.703Z,11.43
2018-06-15T20:48:52.958Z,10.93
2018-06-15T20:51:24.954Z,12.10
2018-06-15T20:53:54.384Z,14.07
2018-06-15T20:56:25.545Z,14.23
2018-06-15T20:59:07.299Z,14.07
2018-06-15T21:01:42.296Z,13.60
2018-06-15T21:04:12.833Z,14.10
2018-06-15T21:06:52.714Z,15.97
2018-06-15T21:09:22.092Z,14.50
2018-06-15T21:12:04.947Z,14.07
2018-06-15T21:14:34.763Z,14.70
2018-06-15T21:17:04.521Z,14.47
2018-06-15T21:19:38.197Z,14.87
2018-06-15T21:22:06.776Z,15.40
2018-06-15T21:24:36.470Z,15.83
2018-06-15T21:27:14.802Z,15.77
2018-06-15T21:29:49.970Z,15.80
2018-06-15T21:32:18.441Z,15.90
2018-06-15T21:34:47.066Z,16.57
2018-06-15T21:37:24.314Z,17.50
2018-06-15T21:40:03.570Z,17.13
2018-06-15T21:42:32.236Z,17.23
2018-06-15T21:45:00.873Z,17.10
2018-06-15T21:47:35.066Z,17.17
2018-06-15T21:50:05.734Z,17.63
2018-06-15T21:52:39.845Z,18.77
2018-06-15T21:55:13.523Z,17.90
2018-06-15T21:57:53.829Z,18.13
2018-06-15T22:00:27.974Z,17.93
2018-06-15T22:03:16.389Z,19.03
2018-06-15T22:05:49.362Z,18.50
2018-06-15T22:08:18.035Z,18.00
2018-06-15T22:10:46.744Z,17.60
2018-06-15T22:13:23.371Z,15.67
2018-06-15T22:15:53.004Z,16.23
2018-06-15T22:18:21.664Z,17.00
2018-06-15T22:20:58.158Z,18.50
2018-06-15T22:23:36.319Z,18.33
2018-06-15T22:26:08.043Z,18.17
2018-06-15T22:28:42.594Z,17.70
2018-06-15T22:31:16.458Z,18.13
2018-06-15T22:33:44.808Z,19.03
2018-06-15T22:36:13.198Z,18.70
2018-06-15T22:38:47.736Z,20.03
2018-06-15T22:41:26.559Z,18.67
2018-06-15T22:44:06.341Z,18.17
2018-06-15T22:46:40.510Z,18.33
2018-06-15T22:49:10.983Z,18.97
2018-06-15T22:51:41.292Z,19.67
2018-06-15T22:54:22.561Z,19.33
2018-06-15T22:56:56.900Z,19.67
2018-06-15T22:59:25.518Z,19.67
2018-06-15T23:01:55.994Z,21.47
2018-06-15T23:04:25.614Z,21.00
2018-06-15T23:06:54.012Z,20.90
2018-06-15T23:09:26.084Z,21.77
2018-06-15T23:11:54.796Z,22.23
2018-06-15T23:14:33.987Z,21.57
2018-06-15T23:17:03.488Z,22.37
2018-06-15T23:19:31.857Z,21.57
2018-06-15T23:22:00.267Z,21.30
2018-06-15T23:24:28.963Z,22.83
2018-06-15T23:29:53.885Z,21.27
2018-06-15T23:32:24.578Z,21.07
2018-06-15T23:34:57.218Z,20.43
2018-06-15T23:37:27.814Z,20.47
2018-06-15T23:39:56.380Z,20.57
2018-06-15T23:42:24.752Z,21.47
2018-06-15T23:44:55.314Z,21.67
2018-06-15T23:47:31.716Z,20.63
2018-06-15T23:50:02.239Z,20.30
2018-06-15T23:52:31.583Z,19.97
2018-06-15T23:55:13.680Z,21.20
2018-06-15T23:57:45.794Z,20.37
